createdAt,value
2023-04-27T00:02:09.460Z,10.00
2023-04-27T00:04:37.778Z,10.30
2023-04-27T00:07:05.638Z,10.40
2023-04-27T00:09:33.329Z,10.50
2023-04-27T00:12:01.489Z,13.30
2023-04-27T00:14:29.234Z,8.90
2023-04-27T00:16:56.993Z,12.60
2023-04-27T00:19:24.663Z,9.70
2023-04-27T00:21:52.424Z,9.60
2023-04-27T00:24:20.035Z,8.40
2023-04-27T00:26:47.673Z,10.90
2023-04-27T00:29:15.651Z,10.00
2023-04-27T00:31:43.561Z,8.70
2023-04-27T00:34:11.206Z,10.10
2023-04-27T00:36:38.878Z,11.70
2023-04-27T00:39:06.662Z,8.20
2023-04-27T00:41:37.891Z,10.80
2023-04-27T00:44:06.011Z,10.70
2023-04-27T00:46:34.335Z,12.10
2023-04-27T00:49:02.826Z,8.50
2023-04-27T00:51:31.405Z,9.70
2023-04-27T00:54:00.201Z,10.70
2023-04-27T00:56:28.049Z,8.40
2023-04-27T00:58:56.040Z,9.90
2023-04-27T01:01:23.733Z,8.90
2023-04-27T01:03:51.785Z,9.10
2023-04-27T01:06:19.703Z,13.90
2023-04-27T01:08:47.370Z,10.30
2023-04-27T01:11:15.359Z,14.40
2023-04-27T01:13:43.118Z,9.40
2023-04-27T01:16:10.731Z,8.60
2023-04-27T01:18:40.735Z,11.30
2023-04-27T01:21:08.483Z,10.10
2023-04-27T01:23:36.667Z,12.20
2023-04-27T01:26:04.593Z,10.00
2023-04-27T01:28:32.258Z,14.70
2023-04-27T01:31:00.052Z,10.20
2023-04-27T01:33:27.676Z,12.50
2023-04-27T01:35:55.551Z,9.70
2023-04-27T01:38:24.338Z,13.50
2023-04-27T01:40:52.199Z,9.80
2023-04-27T01:43:19.861Z,9.90
2023-04-27T01:45:48.671Z,12.00
2023-04-27T01:48:16.740Z,10.30
2023-04-27T01:50:44.394Z,10.30
2023-04-27T01:53:12.163Z,11.30
2023-04-27T01:55:40.031Z,11.60
2023-04-27T01:58:07.788Z,11.60
2023-04-27T02:00:35.463Z,13.50
2023-04-27T02:03:03.561Z,15.80
2023-04-27T02:05:31.472Z,14.20
2023-04-27T02:07:59.237Z,10.70
2023-04-27T02:10:26.871Z,10.10
2023-04-27T02:12:54.690Z,10.40
2023-04-27T02:15:23.011Z,13.40
2023-04-27T02:17:50.784Z,13.40
2023-04-27T02:20:18.591Z,13.50
2023-04-27T02:22:46.240Z,13.50
2023-04-27T02:25:14.417Z,16.70
2023-04-27T02:27:42.101Z,13.60
2023-04-27T02:30:11.866Z,13.20
2023-04-27T02:32:41.404Z,11.60
2023-04-27T02:35:10.153Z,16.90
2023-04-27T02:37:37.887Z,13.20
2023-04-27T02:40:09.601Z,13.20
2023-04-27T02:42:39.108Z,11.60
2023-04-27T02:45:08.246Z,13.50
2023-04-27T02:47:36.252Z,15.70
2023-04-27T02:50:04.742Z,10.80
2023-04-27T02:52:32.411Z,10.30
2023-04-27T02:55:00.108Z,15.40
2023-04-27T02:57:28.155Z,11.30
2023-04-27T02:59:55.839Z,12.60
2023-04-27T03:02:23.720Z,12.10
2023-04-27T03:04:55.436Z,12.20
2023-04-27T03:07:23.117Z,12.20
2023-04-27T03:09:50.968Z,14.20
2023-04-27T03:12:18.689Z,11.10
2023-04-27T03:14:46.372Z,15.80
2023-04-27T03:17:14.041Z,9.90
2023-04-27T03:19:41.906Z,9.80
2023-04-27T03:22:09.563Z,14.50
2023-04-27T03:24:37.338Z,14.50
2023-04-27T03:27:05.004Z,12.10
2023-04-27T03:29:32.761Z,10.90
2023-04-27T03:32:01.077Z,13.40
2023-04-27T03:34:28.734Z,15.60
2023-04-27T03:36:56.971Z,15.20
2023-04-27T03:39:24.688Z,9.70
2023-04-27T03:41:52.394Z,14.70
2023-04-27T03:44:20.016Z,13.00
2023-04-27T03:46:47.619Z,12.50
2023-04-27T03:49:15.373Z,13.70
2023-04-27T03:51:44.190Z,16.50
2023-04-27T03:54:11.815Z,12.20
2023-04-27T03:56:39.538Z,18.50
2023-04-27T03:59:07.258Z,18.00
2023-04-27T04:01:35.028Z,11.00
2023-04-27T04:04:02.924Z,13.10
2023-04-27T04:06:31.202Z,13.20
2023-04-27T04:08:59.028Z,10.50
2023-04-27T04:11:27.631Z,11.40
2023-04-27T04:13:55.501Z,16.70
2023-04-27T04:16:23.358Z,19.50
2023-04-27T04:18:51.512Z,13.90
2023-04-27T04:21:19.142Z,14.60
2023-04-27T04:23:46.803Z,14.20
2023-04-27T04:26:14.993Z,13.00
2023-04-27T04:28:44.312Z,14.70
2023-04-27T04:31:13.565Z,12.80
2023-04-27T04:33:41.372Z,11.60
2023-04-27T04:36:10.989Z,12.80
2023-04-27T04:38:38.878Z,11.70
2023-04-27T04:41:07.437Z,12.90
2023-04-27T04:43:35.084Z,9.10
2023-04-27T04:46:02.829Z,12.70
2023-04-27T04:48:30.501Z,9.30
2023-04-27T04:50:58.199Z,12.80
2023-04-27T04:53:26.389Z,17.00
2023-04-27T04:55:54.120Z,19.30
2023-04-27T04:58:21.768Z,19.50
2023-04-27T05:00:49.470Z,16.80
2023-04-27T05:03:17.513Z,16.80
2023-04-27T05:05:45.583Z,15.60
2023-04-27T05:08:13.386Z,11.40
2023-04-27T05:10:41.119Z,10.40
2023-04-27T05:13:08.873Z,9.50
2023-04-27T05:15:37.582Z,11.90
2023-04-27T05:18:05.391Z,11.20
2023-04-27T05:20:37.677Z,15.90
2023-04-27T05:23:05.580Z,10.80
2023-04-27T05:25:34.649Z,12.80
2023-04-27T05:28:02.305Z,13.30
2023-04-27T05:30:29.945Z,11.80
2023-04-27T05:32:57.565Z,13.00
2023-04-27T05:35:25.237Z,10.30
2023-04-27T05:37:52.956Z,10.30
2023-04-27T05:40:20.615Z,14.40
2023-04-27T05:42:49.207Z,11.00
2023-04-27T05:45:16.948Z,14.10
2023-04-27T05:47:44.640Z,12.60
2023-04-27T05:50:12.591Z,15.80
2023-04-27T05:52:40.790Z,13.10
2023-04-27T05:55:08.736Z,13.80
2023-04-27T05:57:36.446Z,11.00
2023-04-27T06:00:09.266Z,13.50
2023-04-27T06:02:37.088Z,11.20
2023-04-27T06:05:05.599Z,12.80
2023-04-27T06:07:33.618Z,13.30
2023-04-27T06:10:01.354Z,13.70
2023-04-27T06:12:29.075Z,13.50
2023-04-27T06:14:56.728Z,10.70
2023-04-27T06:17:24.445Z,13.10
2023-04-27T06:19:52.201Z,12.30
2023-04-27T06:22:19.967Z,8.20
2023-04-27T06:24:47.863Z,10.50
2023-04-27T06:27:15.690Z,10.70
2023-04-27T06:29:43.377Z,10.60
2023-04-27T06:32:11.225Z,14.90
2023-04-27T06:34:38.925Z,10.50
2023-04-27T06:37:06.668Z,12.50
2023-04-27T06:39:35.398Z,12.00
2023-04-27T06:42:05.909Z,13.50
2023-04-27T06:44:33.627Z,12.50
2023-04-27T06:47:01.300Z,9.60
2023-04-27T06:49:29.059Z,11.00
2023-04-27T06:51:57.321Z,13.50
2023-04-27T06:54:25.194Z,11.40
2023-04-27T06:56:54.808Z,15.90
2023-04-27T06:59:22.527Z,14.10
2023-04-27T07:01:50.298Z,11.60
2023-04-27T07:04:18.320Z,13.60
2023-04-27T07:06:46.388Z,12.50
2023-04-27T07:09:26.450Z,14.60
2023-04-27T07:11:56.023Z,13.80
2023-04-27T07:14:23.886Z,13.50
2023-04-27T07:16:51.659Z,12.00
2023-04-27T07:19:19.541Z,12.40
2023-04-27T07:21:47.381Z,13.80
2023-04-27T07:24:15.121Z,16.40
2023-04-27T07:26:42.813Z,10.70
2023-04-27T07:29:25.737Z,11.90
2023-04-27T07:31:56.109Z,12.80
2023-04-27T07:34:24.183Z,12.30
2023-04-27T07:36:54.466Z,12.00
2023-04-27T07:39:22.483Z,13.70
2023-04-27T07:41:50.353Z,13.20
2023-04-27T07:44:19.110Z,10.30
2023-04-27T07:46:49.009Z,11.50
2023-04-27T07:49:17.050Z,12.30
2023-04-27T07:51:44.912Z,11.00
2023-04-27T07:54:12.642Z,11.30
2023-04-27T07:56:43.134Z,11.80
2023-04-27T07:59:11.445Z,8.50
2023-04-27T08:01:39.406Z,9.50
2023-04-27T08:04:07.340Z,9.30
2023-04-27T08:06:36.192Z,9.40
2023-04-27T08:09:05.393Z,10.20
2023-04-27T08:11:33.166Z,7.30
2023-04-27T08:14:01.228Z,8.90
2023-04-27T08:16:28.964Z,10.40
2023-04-27T08:18:57.549Z,7.40
2023-04-27T08:21:28.465Z,10.80
2023-04-27T08:23:56.784Z,6.20
2023-04-27T08:26:26.290Z,9.10
2023-04-27T08:28:56.360Z,7.40
2023-04-27T08:31:25.378Z,11.50
2023-04-27T08:33:54.114Z,7.20
2023-04-27T08:36:26.336Z,8.00
2023-04-27T08:38:54.125Z,11.30
2023-04-27T08:41:23.524Z,9.50
2023-04-27T08:43:52.093Z,8.20
2023-04-27T08:46:24.009Z,7.80
2023-04-27T08:48:53.015Z,6.30
2023-04-27T08:51:21.866Z,9.20
2023-04-27T08:53:54.633Z,5.70
2023-04-27T08:56:25.250Z,11.40
2023-04-27T08:58:53.157Z,7.30
2023-04-27T09:01:24.645Z,9.10
2023-04-27T09:03:58.736Z,6.30
2023-04-27T09:06:31.970Z,9.50
2023-04-27T09:09:00.889Z,13.10
2023-04-27T09:11:36.718Z,7.40
2023-04-27T09:14:17.033Z,5.90
2023-04-27T09:16:45.172Z,7.10
2023-04-27T09:19:24.466Z,8.40
2023-04-27T09:22:04.410Z,7.80
2023-04-27T09:24:32.129Z,8.80
2023-04-27T09:27:01.095Z,10.60
2023-04-27T09:29:39.081Z,6.00
2023-04-27T09:32:17.704Z,7.40
2023-04-27T09:34:45.778Z,6.70
2023-04-27T09:37:14.759Z,6.70
2023-04-27T09:39:43.017Z,7.10
2023-04-27T09:42:12.694Z,6.70
2023-04-27T09:44:40.719Z,7.60
2023-04-27T09:47:10.758Z,5.40
2023-04-27T09:49:39.005Z,5.50
2023-04-27T09:52:06.971Z,5.10
2023-04-27T09:54:36.612Z,6.80
2023-04-27T09:57:36.192Z,8.30
2023-04-27T10:00:20.616Z,7.40
2023-04-27T10:03:23.738Z,8.10
2023-04-27T10:06:06.855Z,8.10
2023-04-27T10:08:36.141Z,10.00
2023-04-27T10:11:15.406Z,7.40
2023-04-27T10:13:54.809Z,4.30
2023-04-27T10:16:23.243Z,8.80
2023-04-27T10:18:55.446Z,7.60
2023-04-27T10:21:23.938Z,6.50
2023-04-27T10:23:52.470Z,7.80
2023-04-27T10:26:24.491Z,6.90
2023-04-27T10:29:09.184Z,7.30
2023-04-27T10:31:45.213Z,8.20
2023-04-27T10:34:21.169Z,7.00
2023-04-27T10:36:49.217Z,5.90
2023-04-27T10:39:47.086Z,4.60
2023-04-27T10:42:30.542Z,5.70
2023-04-27T10:44:58.641Z,6.70
2023-04-27T10:47:37.611Z,4.90
2023-04-27T10:50:07.770Z,6.30
2023-04-27T10:52:35.605Z,5.20
2023-04-27T10:55:14.870Z,8.40
2023-04-27T10:57:56.018Z,5.10
2023-04-27T11:00:25.534Z,6.00
2023-04-27T11:02:55.033Z,4.50
2023-04-27T11:05:29.513Z,6.40
2023-04-27T11:08:07.330Z,4.00
2023-04-27T11:10:38.378Z,5.30
2023-04-27T11:13:15.019Z,4.30
2023-04-27T11:15:51.138Z,5.30
2023-04-27T11:18:20.636Z,5.40
2023-04-27T11:20:51.056Z,3.60
2023-04-27T11:23:26.320Z,4.80
2023-04-27T11:25:55.194Z,4.00
2023-04-27T11:28:24.439Z,5.40
2023-04-27T11:30:59.723Z,6.30
2023-04-27T11:33:28.408Z,3.00
2023-04-27T11:35:57.522Z,7.90
2023-04-27T11:38:27.651Z,4.40
2023-04-27T11:41:05.955Z,5.40
2023-04-27T11:43:34.630Z,6.40
2023-04-27T11:46:04.446Z,6.10
2023-04-27T11:48:32.802Z,5.00
2023-04-27T11:51:01.319Z,4.70
2023-04-27T11:53:34.014Z,4.60
2023-04-27T11:56:07.878Z,5.10
2023-04-27T11:58:37.486Z,5.50
2023-04-27T12:01:06.974Z,5.40
2023-04-27T12:03:35.378Z,5.90
2023-04-27T12:06:21.544Z,5.40
2023-04-27T12:08:51.485Z,3.70
2023-04-27T12:11:19.551Z,6.20
2023-04-27T12:13:47.310Z,4.10
2023-04-27T12:16:15.692Z,6.60
2023-04-27T12:18:43.732Z,3.40
2023-04-27T12:21:11.710Z,3.90
2023-04-27T12:23:39.394Z,4.50
2023-04-27T12:26:07.343Z,3.20
2023-04-27T12:28:35.162Z,4.40
2023-04-27T12:31:05.210Z,5.20
2023-04-27T12:33:33.099Z,4.10
2023-04-27T12:36:00.956Z,4.50
2023-04-27T12:38:29.349Z,5.10
2023-04-27T12:40:58.921Z,3.50
2023-04-27T12:43:27.102Z,5.40
2023-04-27T12:45:55.010Z,3.70
2023-04-27T12:48:23.682Z,4.30
2023-04-27T12:50:51.628Z,2.50
2023-04-27T12:53:19.518Z,2.90
2023-04-27T12:55:47.602Z,4.40
2023-04-27T12:58:15.842Z,3.70
2023-04-27T13:00:44.211Z,3.30
2023-04-27T13:03:12.276Z,4.70
2023-04-27T13:05:40.199Z,3.70
2023-04-27T13:08:07.889Z,3.70
2023-04-27T13:10:36.754Z,4.50
2023-04-27T13:13:04.516Z,4.80
2023-04-27T13:15:32.361Z,3.20
2023-04-27T13:18:01.948Z,2.70
2023-04-27T13:20:29.796Z,3.00
2023-04-27T13:22:57.518Z,4.90
2023-04-27T13:25:25.479Z,3.90
2023-04-27T13:27:54.115Z,4.10
2023-04-27T13:30:21.861Z,4.30
2023-04-27T13:32:49.590Z,3.80
2023-04-27T13:35:17.284Z,4.30
2023-04-27T13:37:45.541Z,3.20
2023-04-27T13:40:13.646Z,4.00
2023-04-27T13:42:41.824Z,9.70
2023-04-27T13:45:10.539Z,5.70
2023-04-27T13:47:39.993Z,5.50
2023-04-27T13:50:12.235Z,3.30
2023-04-27T13:52:40.661Z,4.90
2023-04-27T13:55:10.557Z,7.10
2023-04-27T13:57:38.323Z,4.90
2023-04-27T14:00:13.167Z,5.70
2023-04-27T14:02:41.386Z,7.60
2023-04-27T14:05:09.436Z,5.30
2023-04-27T14:07:37.268Z,3.30
2023-04-27T14:10:05.881Z,5.20
2023-04-27T14:12:33.924Z,3.80
2023-04-27T14:15:01.566Z,5.40
2023-04-27T14:17:29.987Z,4.80
2023-04-27T14:19:57.825Z,5.40
2023-04-27T14:22:26.372Z,4.20
2023-04-27T14:24:56.790Z,4.90
2023-04-27T14:27:24.711Z,3.50
2023-04-27T14:29:52.474Z,5.30
2023-04-27T14:32:21.425Z,5.20
2023-04-27T14:34:49.375Z,3.80
2023-04-27T14:37:17.716Z,3.20
2023-04-27T14:39:46.507Z,6.00
2023-04-27T14:42:14.458Z,4.00
2023-04-27T14:44:42.539Z,4.10
2023-04-27T14:47:10.828Z,4.60
2023-04-27T14:49:39.095Z,8.60
2023-04-27T14:52:08.471Z,5.00
2023-04-27T14:54:39.045Z,4.80
2023-04-27T14:57:08.183Z,3.70
2023-04-27T14:59:36.316Z,4.70
2023-04-27T15:02:05.000Z,4.60
2023-04-27T15:04:35.665Z,5.40
2023-04-27T15:07:04.744Z,4.50
2023-04-27T15:09:34.396Z,6.00
2023-04-27T15:12:04.246Z,6.60
2023-04-27T15:14:33.506Z,7.30
2023-04-27T15:17:01.473Z,7.20
2023-04-27T15:19:29.646Z,6.10
2023-04-27T15:21:58.021Z,5.90
2023-04-27T15:24:26.098Z,7.10
2023-04-27T15:26:54.608Z,5.30
2023-04-27T15:29:22.912Z,6.00
2023-04-27T15:31:51.163Z,14.30
2023-04-27T15:34:20.678Z,6.90
2023-04-27T15:36:49.098Z,8.00
2023-04-27T15:39:17.042Z,4.10
2023-04-27T15:41:45.275Z,5.10
2023-04-27T15:44:13.399Z,5.90
2023-04-27T15:46:42.014Z,6.90
2023-04-27T15:49:13.026Z,4.50
2023-04-27T15:51:41.416Z,5.90
2023-04-27T15:54:09.372Z,5.80
2023-04-27T15:56:37.475Z,5.50
2023-04-27T15:59:07.291Z,6.40
2023-04-27T16:01:35.968Z,5.80
2023-04-27T16:04:04.497Z,5.20
2023-04-27T16:06:35.893Z,7.80
2023-04-27T16:09:05.068Z,8.10
2023-04-27T16:11:33.826Z,7.00
2023-04-27T16:14:02.297Z,9.60
2023-04-27T16:16:30.658Z,10.70
2023-04-27T16:18:59.964Z,8.80
2023-04-27T16:21:28.795Z,8.20
2023-04-27T16:23:57.858Z,12.50
2023-04-27T16:26:27.835Z,28.40
2023-04-27T16:28:57.777Z,16.40
2023-04-27T16:31:25.930Z,28.00
2023-04-27T16:33:54.520Z,20.90
2023-04-27T16:36:23.394Z,14.00
2023-04-27T16:38:52.057Z,13.10
2023-04-27T16:41:20.987Z,10.00
2023-04-27T16:43:51.138Z,9.20
2023-04-27T16:46:19.480Z,10.70
2023-04-27T16:48:47.713Z,11.00
2023-04-27T16:51:15.770Z,7.90
2023-04-27T16:53:43.875Z,7.10
2023-04-27T16:56:13.717Z,4.80
2023-04-27T16:58:41.837Z,8.30
2023-04-27T17:01:09.586Z,7.10
2023-04-27T17:03:37.530Z,6.10
2023-04-27T17:06:05.539Z,5.90
2023-04-27T17:08:33.641Z,8.40
2023-04-27T17:11:01.684Z,6.30
2023-04-27T17:13:32.970Z,5.60
2023-04-27T17:16:01.948Z,6.10
2023-04-27T17:18:31.916Z,6.80
2023-04-27T17:21:01.144Z,6.40
2023-04-27T17:23:29.812Z,6.90
2023-04-27T17:25:58.621Z,6.50
2023-04-27T17:28:26.683Z,7.60
2023-04-27T17:30:54.324Z,9.00
2023-04-27T17:33:23.319Z,6.30
2023-04-27T17:35:52.727Z,7.70
2023-04-27T17:38:22.050Z,6.80
2023-04-27T17:40:50.931Z,7.40
2023-04-27T17:43:19.310Z,5.90
2023-04-27T17:45:48.262Z,4.90
2023-04-27T17:48:17.343Z,6.90
2023-04-27T17:50:46.196Z,6.80
2023-04-27T17:53:15.791Z,7.80
2023-04-27T17:55:48.222Z,11.40
2023-04-27T17:58:17.386Z,6.20
2023-04-27T18:00:46.534Z,8.20
2023-04-27T18:03:16.967Z,7.30
2023-04-27T18:05:47.006Z,5.40
2023-04-27T18:08:15.608Z,7.90
2023-04-27T18:10:45.619Z,6.40
2023-04-27T18:13:14.080Z,8.60
2023-04-27T18:15:42.966Z,14.10
2023-04-27T18:18:14.035Z,19.30
2023-04-27T18:20:45.479Z,19.10
2023-04-27T18:23:15.337Z,20.20
2023-04-27T18:25:44.695Z,19.90
2023-04-27T18:28:14.020Z,15.60
2023-04-27T18:30:43.390Z,16.70
2023-04-27T18:33:12.696Z,16.20
2023-04-27T18:35:41.524Z,19.40
2023-04-27T18:38:10.712Z,18.80
2023-04-27T18:40:41.143Z,16.80
2023-04-27T18:43:12.605Z,16.20
2023-04-27T18:45:42.379Z,19.50
2023-04-27T18:48:11.452Z,19.70
2023-04-27T18:50:41.728Z,17.60
2023-04-27T18:53:11.679Z,16.90
2023-04-27T18:55:40.322Z,21.90
2023-04-27T18:58:09.174Z,18.80
2023-04-27T19:00:41.797Z,21.00
2023-04-27T19:03:11.291Z,23.50
2023-04-27T19:05:43.331Z,23.80
2023-04-27T19:08:13.132Z,22.40
2023-04-27T19:10:42.855Z,25.20
2023-04-27T19:13:12.560Z,21.50
2023-04-27T19:15:42.927Z,18.90
2023-04-27T19:18:12.895Z,15.70
2023-04-27T19:20:42.797Z,14.10
2023-04-27T19:23:13.317Z,18.50
2023-04-27T19:25:42.264Z,17.60
2023-04-27T19:28:11.109Z,16.70
2023-04-27T19:30:39.618Z,15.20
2023-04-27T19:33:08.308Z,14.30
2023-04-27T19:35:37.440Z,18.30
2023-04-27T19:38:06.954Z,21.60
2023-04-27T19:40:37.161Z,25.20
2023-04-27T19:43:07.290Z,26.20
2023-04-27T19:45:39.115Z,25.20
2023-04-27T19:48:08.414Z,22.80
2023-04-27T19:50:38.664Z,24.40
2023-04-27T19:53:07.550Z,22.50
2023-04-27T19:55:36.551Z,23.50
2023-04-27T19:58:05.465Z,19.70
2023-04-27T20:00:34.986Z,22.50
2023-04-27T20:03:04.092Z,21.50
2023-04-27T20:05:35.738Z,20.50
2023-04-27T20:08:04.761Z,20.60
2023-04-27T20:10:34.318Z,20.40
2023-04-27T20:13:02.720Z,15.90
2023-04-27T20:15:31.218Z,17.90
2023-04-27T20:17:59.360Z,17.00
2023-04-27T20:20:28.407Z,18.30
2023-04-27T20:22:56.886Z,19.40
2023-04-27T20:25:26.095Z,19.70
2023-04-27T20:27:54.650Z,21.00
2023-04-27T20:30:22.869Z,19.40
2023-04-27T20:32:51.342Z,22.10
2023-04-27T20:35:20.324Z,18.80
2023-04-27T20:37:48.667Z,21.50
2023-04-27T20:40:18.300Z,17.70
2023-04-27T20:42:47.093Z,23.70
2023-04-27T20:45:15.550Z,24.00
2023-04-27T20:47:43.949Z,22.70
2023-04-27T20:50:12.674Z,26.80
2023-04-27T20:52:41.760Z,22.20
2023-04-27T20:55:10.492Z,27.00
2023-04-27T20:57:39.499Z,23.80
2023-04-27T21:00:10.132Z,26.90
2023-04-27T21:02:38.938Z,27.50
2023-04-27T21:05:07.758Z,28.40
2023-04-27T21:07:36.407Z,27.60
2023-04-27T21:10:07.098Z,21.90
2023-04-27T21:12:35.996Z,27.40
2023-04-27T21:15:04.732Z,25.40
2023-04-27T21:17:33.562Z,24.00
2023-04-27T21:20:02.398Z,26.30
2023-04-27T21:22:31.008Z,22.70
2023-04-27T21:24:59.368Z,23.50
2023-04-27T21:27:31.705Z,25.50
2023-04-27T21:30:00.068Z,22.50
2023-04-27T21:32:29.306Z,22.00
2023-04-27T21:34:57.744Z,21.50
2023-04-27T21:37:26.550Z,23.20
2023-04-27T21:39:55.024Z,23.20
2023-04-27T21:42:24.810Z,22.70
2023-04-27T21:44:53.093Z,23.50
2023-04-27T21:47:20.987Z,26.00
2023-04-27T21:49:50.594Z,22.30
2023-04-27T21:52:21.896Z,24.90
2023-04-27T21:54:50.175Z,19.90
2023-04-27T21:57:19.932Z,19.50
2023-04-27T21:59:48.835Z,20.10
2023-04-27T22:02:17.846Z,24.30
2023-04-27T22:04:46.690Z,23.80
2023-04-27T22:07:15.029Z,20.90
2023-04-27T22:09:43.980Z,21.60
2023-04-27T22:12:12.737Z,21.30
2023-04-27T22:14:43.554Z,23.00
2023-04-27T22:17:40.034Z,18.20
2023-04-27T22:20:13.142Z,21.40
2023-04-27T22:22:41.564Z,15.90
2023-04-27T22:25:12.043Z,17.70
2023-04-27T22:27:44.879Z,18.20
2023-04-27T22:30:15.764Z,16.80
2023-04-27T22:32:45.492Z,23.50
2023-04-27T22:35:25.504Z,24.10
2023-04-27T22:37:56.685Z,18.70
2023-04-27T22:40:25.727Z,18.80
2023-04-27T22:42:55.908Z,20.90
2023-04-27T22:45:24.879Z,17.60
2023-04-27T22:47:53.055Z,15.70
2023-04-27T22:50:21.867Z,21.90
2023-04-27T22:52:50.277Z,17.70
2023-04-27T22:55:19.631Z,17.80
2023-04-27T22:57:50.215Z,20.00
2023-04-27T23:00:18.505Z,18.70
2023-04-27T23:02:48.360Z,20.20
2023-04-27T23:05:16.941Z,19.40
2023-04-27T23:07:46.976Z,20.20
2023-04-27T23:10:15.553Z,20.60
2023-04-27T23:12:43.965Z,17.60
2023-04-27T23:15:12.719Z,18.10
2023-04-27T23:17:41.753Z,19.70
2023-04-27T23:20:24.558Z,17.20
2023-04-27T23:22:56.526Z,16.20
2023-04-27T23:25:26.206Z,19.40
2023-04-27T23:27:54.639Z,19.90
2023-04-27T23:30:23.796Z,20.10
2023-04-27T23:32:52.161Z,16.40
2023-04-27T23:35:21.198Z,17.50
2023-04-27T23:37:50.445Z,21.20
2023-04-27T23:40:18.963Z,16.30
2023-04-27T23:42:50.823Z,15.80
2023-04-27T23:45:21.144Z,15.30
2023-04-27T23:47:49.925Z,19.80
2023-04-27T23:50:19.097Z,17.50
2023-04-27T23:52:48.233Z,17.10
2023-04-27T23:55:17.238Z,21.20
2023-04-27T23:57:46.453Z,17.00
